createdAt,value
2023-05-05T00:01:47.369Z,100821.78
2023-05-05T00:04:14.286Z,100822.16
2023-05-05T00:06:42.614Z,100826.03
2023-05-05T00:09:09.641Z,100815.75
2023-05-05T00:11:36.724Z,100818.66
2023-05-05T00:14:04.930Z,100823.00
2023-05-05T00:16:32.308Z,100820.63
2023-05-05T00:19:00.319Z,100827.81
2023-05-05T00:21:30.154Z,100823.56
2023-05-05T00:23:56.962Z,100821.19
2023-05-05T00:26:24.106Z,100822.22
2023-05-05T00:28:52.155Z,100818.25
2023-05-05T00:31:19.324Z,100823.81
2023-05-05T00:33:46.153Z,100819.34
2023-05-05T00:36:14.836Z,100811.63
2023-05-05T00:38:41.634Z,100817.66
2023-05-05T00:41:08.730Z,100821.34
2023-05-05T00:43:36.112Z,100812.63
2023-05-05T00:46:13.341Z,100811.28
2023-05-05T00:48:40.919Z,100814.75
2023-05-05T00:51:09.452Z,100805.88
2023-05-05T00:53:36.478Z,100806.41
2023-05-05T00:56:03.731Z,100808.13
2023-05-05T00:58:30.648Z,100802.50
2023-05-05T01:00:57.751Z,100809.22
2023-05-05T01:03:24.912Z,100807.81
2023-05-05T01:06:06.173Z,100806.88
2023-05-05T01:09:01.715Z,100810.63
2023-05-05T01:11:34.939Z,100807.38
2023-05-05T01:14:19.209Z,100802.03
2023-05-05T01:17:03.148Z,100808.06
2023-05-05T01:20:06.382Z,100795.03
2023-05-05T01:22:49.553Z,100796.75
2023-05-05T01:25:38.109Z,100802.13
2023-05-05T01:28:19.493Z,100796.25
2023-05-05T01:31:07.376Z,100797.47
2023-05-05T01:33:46.022Z,100796.84
2023-05-05T01:36:22.881Z,100791.56
2023-05-05T01:38:57.014Z,100796.25
2023-05-05T01:41:30.422Z,100794.66
2023-05-05T01:44:00.373Z,100790.13
2023-05-05T01:46:27.603Z,100795.22
2023-05-05T01:48:56.995Z,100797.63
2023-05-05T01:51:25.285Z,100796.66
2023-05-05T01:53:53.484Z,100799.31
2023-05-05T01:56:22.926Z,100802.75
2023-05-05T01:58:51.163Z,100805.44
2023-05-05T02:01:21.911Z,100794.88
2023-05-05T02:03:51.405Z,100802.91
2023-05-05T02:06:20.803Z,100794.63
2023-05-05T02:08:50.112Z,100792.69
2023-05-05T02:11:17.827Z,100788.25
2023-05-05T02:13:46.454Z,100788.56
2023-05-05T02:16:14.026Z,100789.28
2023-05-05T02:18:43.121Z,100788.75
2023-05-05T02:21:10.083Z,100787.22
2023-05-05T02:23:39.111Z,100792.50
2023-05-05T02:26:10.441Z,100790.03
2023-05-05T02:28:50.505Z,100784.66
2023-05-05T02:31:20.605Z,100789.25
2023-05-05T02:33:51.114Z,100792.59
2023-05-05T02:36:23.481Z,100788.13
2023-05-05T02:39:01.190Z,100788.22
2023-05-05T02:41:31.495Z,100784.81
2023-05-05T02:44:00.138Z,100787.19
2023-05-05T02:46:28.150Z,100789.81
2023-05-05T02:48:55.419Z,100797.03
2023-05-05T02:51:22.226Z,100783.16
2023-05-05T02:53:49.301Z,100788.09
2023-05-05T02:56:34.934Z,100791.44
2023-05-05T02:59:27.004Z,100789.97
2023-05-05T03:02:21.851Z,100789.28
2023-05-05T03:04:54.969Z,100793.34
2023-05-05T03:07:51.673Z,100798.19
2023-05-05T03:10:21.932Z,100800.06
2023-05-05T03:12:53.622Z,100792.41
2023-05-05T03:15:26.566Z,100793.06
2023-05-05T03:17:54.208Z,100795.44
2023-05-05T03:20:22.407Z,100792.97
2023-05-05T03:22:49.927Z,100794.91
2023-05-05T03:25:17.020Z,100791.31
2023-05-05T03:27:43.868Z,100796.59
2023-05-05T03:30:12.120Z,100794.06
2023-05-05T03:32:38.963Z,100795.75
2023-05-05T03:35:06.646Z,100796.59
2023-05-05T03:37:33.438Z,100789.41
2023-05-05T03:40:00.635Z,100791.19
2023-05-05T03:42:27.465Z,100792.88
2023-05-05T03:44:57.346Z,100794.44
2023-05-05T03:47:24.750Z,100798.78
2023-05-05T03:49:52.520Z,100791.81
2023-05-05T03:52:19.274Z,100794.13
2023-05-05T03:54:46.377Z,100804.88
2023-05-05T03:57:13.145Z,100811.75
2023-05-05T03:59:40.436Z,100806.16
2023-05-05T04:02:07.506Z,100806.59
2023-05-05T04:04:34.719Z,100807.69
2023-05-05T04:07:01.700Z,100811.13
2023-05-05T04:09:28.802Z,100817.78
2023-05-05T04:11:55.722Z,100813.78
2023-05-05T04:14:22.822Z,100815.25
2023-05-05T04:16:49.653Z,100813.91
2023-05-05T04:19:17.586Z,100818.16
2023-05-05T04:21:44.450Z,100803.78
2023-05-05T04:24:11.589Z,100811.72
2023-05-05T04:26:38.439Z,100802.53
2023-05-05T04:29:05.579Z,100810.22
2023-05-05T04:31:32.434Z,100810.03
2023-05-05T04:33:59.511Z,100815.06
2023-05-05T04:36:26.264Z,100823.66
2023-05-05T04:38:53.474Z,100820.69
2023-05-05T04:41:20.307Z,100813.63
2023-05-05T04:43:47.434Z,100832.03
2023-05-05T04:46:14.529Z,100824.63
2023-05-05T04:48:41.657Z,100835.88
2023-05-05T04:51:08.577Z,100825.72
2023-05-05T04:53:36.107Z,100829.72
2023-05-05T04:56:03.459Z,100833.72
2023-05-05T04:58:31.671Z,100831.03
2023-05-05T05:00:58.724Z,100829.66
2023-05-05T05:03:26.070Z,100835.44
2023-05-05T05:05:53.107Z,100843.03
2023-05-05T05:08:20.495Z,100836.44
2023-05-05T05:10:47.364Z,100845.63
2023-05-05T05:13:14.516Z,100852.22
2023-05-05T05:15:42.025Z,100852.34
2023-05-05T05:18:09.112Z,100841.25
2023-05-05T05:20:36.114Z,100846.00
2023-05-05T05:23:04.374Z,100844.59
2023-05-05T05:25:31.321Z,100845.94
2023-05-05T05:28:08.973Z,100849.06
2023-05-05T05:30:37.114Z,100849.25
2023-05-05T05:33:04.285Z,100854.75
2023-05-05T05:35:31.603Z,100853.28
2023-05-05T05:37:58.700Z,100855.34
2023-05-05T05:40:25.510Z,100858.09
2023-05-05T05:42:52.573Z,100858.94
2023-05-05T05:45:19.386Z,100863.63
2023-05-05T05:47:46.554Z,100867.47
2023-05-05T05:50:13.891Z,100871.09
2023-05-05T05:52:40.959Z,100863.13
2023-05-05T05:55:08.529Z,100863.94
2023-05-05T05:57:35.621Z,100864.38
2023-05-05T06:00:02.509Z,100859.78
2023-05-05T06:02:29.844Z,100861.25
2023-05-05T06:04:56.682Z,100860.69
2023-05-05T06:07:23.807Z,100861.13
2023-05-05T06:09:50.624Z,100861.22
2023-05-05T06:12:17.727Z,100869.84
2023-05-05T06:14:44.521Z,100865.28
2023-05-05T06:17:11.642Z,100859.66
2023-05-05T06:19:40.934Z,100868.16
2023-05-05T06:22:08.066Z,100869.66
2023-05-05T06:24:35.040Z,100862.88
2023-05-05T06:27:02.491Z,100863.19
2023-05-05T06:29:29.381Z,100856.50
2023-05-05T06:31:56.551Z,100854.19
2023-05-05T06:34:23.344Z,100856.41
2023-05-05T06:36:50.459Z,100846.19
2023-05-05T06:39:17.508Z,100831.97
2023-05-05T06:41:44.657Z,100853.31
2023-05-05T06:44:11.438Z,100845.75
2023-05-05T06:46:38.545Z,100844.34
2023-05-05T06:49:05.377Z,100852.56
2023-05-05T06:51:32.504Z,100854.38
2023-05-05T06:53:59.322Z,100843.19
2023-05-05T06:56:26.414Z,100842.06
2023-05-05T06:58:53.180Z,100847.81
2023-05-05T07:01:20.410Z,100849.06
2023-05-05T07:03:47.393Z,100844.00
2023-05-05T07:06:14.559Z,100838.63
2023-05-05T07:08:41.347Z,100838.78
2023-05-05T07:11:08.427Z,100848.06
2023-05-05T07:13:35.233Z,100840.47
2023-05-05T07:16:02.316Z,100847.53
2023-05-05T07:18:29.114Z,100842.84
2023-05-05T07:20:56.228Z,100839.06
2023-05-05T07:23:23.019Z,100837.75
2023-05-05T07:25:50.697Z,100845.28
2023-05-05T07:28:17.957Z,100836.66
2023-05-05T07:30:45.019Z,100837.41
2023-05-05T07:33:11.867Z,100836.31
2023-05-05T07:35:39.045Z,100838.38
2023-05-05T07:38:06.103Z,100837.03
2023-05-05T07:40:34.466Z,100837.88
2023-05-05T07:43:01.431Z,100844.53
2023-05-05T07:45:31.496Z,100845.75
2023-05-05T07:47:58.375Z,100839.34
2023-05-05T07:50:26.249Z,100834.63
2023-05-05T07:52:59.287Z,100830.25
2023-05-05T07:55:37.834Z,100838.03
2023-05-05T07:58:04.721Z,100840.59
2023-05-05T08:00:31.817Z,100841.16
2023-05-05T08:02:58.754Z,100837.09
2023-05-05T08:05:26.065Z,100830.81
2023-05-05T08:07:55.739Z,100834.50
2023-05-05T08:10:23.120Z,100833.66
2023-05-05T08:12:50.170Z,100823.75
2023-05-05T08:15:17.346Z,100834.19
2023-05-05T08:17:52.289Z,100821.75
2023-05-05T08:20:20.646Z,100829.84
2023-05-05T08:22:48.266Z,100819.78
2023-05-05T08:25:15.438Z,100822.38
2023-05-05T08:27:43.294Z,100819.06
2023-05-05T08:30:11.124Z,100818.06
2023-05-05T08:32:38.502Z,100828.13
2023-05-05T08:35:07.008Z,100827.97
2023-05-05T08:37:34.614Z,100826.28
2023-05-05T08:40:01.852Z,100825.06
2023-05-05T08:42:37.736Z,100821.84
2023-05-05T08:45:08.134Z,100825.81
2023-05-05T08:47:36.752Z,100824.56
2023-05-05T08:50:05.992Z,100825.97
2023-05-05T08:52:40.321Z,100817.16
2023-05-05T08:55:26.826Z,100816.81
2023-05-05T08:57:58.220Z,100810.91
2023-05-05T09:00:27.277Z,100816.22
2023-05-05T09:02:58.981Z,100810.16
2023-05-05T09:05:27.070Z,100804.63
2023-05-05T09:07:54.055Z,100805.19
2023-05-05T09:10:21.548Z,100799.09
2023-05-05T09:12:51.202Z,100799.78
2023-05-05T09:15:18.770Z,100798.25
2023-05-05T09:17:45.865Z,100803.25
2023-05-05T09:20:14.749Z,100798.56
2023-05-05T09:22:46.782Z,100799.66
2023-05-05T09:25:18.290Z,100793.91
2023-05-05T09:27:47.744Z,100780.09
2023-05-05T09:30:24.197Z,100784.56
2023-05-05T09:32:52.947Z,100781.00
2023-05-05T09:35:21.719Z,100777.94
2023-05-05T09:37:48.553Z,100769.97
2023-05-05T09:40:18.029Z,100780.72
2023-05-05T09:42:45.235Z,100772.09
2023-05-05T09:45:18.480Z,100768.91
2023-05-05T09:47:46.894Z,100773.94
2023-05-05T09:50:16.248Z,100768.13
2023-05-05T09:52:43.354Z,100767.31
2023-05-05T09:55:19.722Z,100770.75
2023-05-05T09:57:47.486Z,100764.81
2023-05-05T10:00:15.160Z,100767.47
2023-05-05T10:02:42.224Z,100761.13
2023-05-05T10:05:19.180Z,100761.69
2023-05-05T10:07:47.584Z,100761.19
2023-05-05T10:10:16.469Z,100758.41
2023-05-05T10:12:45.986Z,100757.72
2023-05-05T10:15:15.491Z,100756.25
2023-05-05T10:20:21.152Z,100747.63
2023-05-05T10:22:56.485Z,100757.66
2023-05-05T10:25:39.169Z,100752.19
2023-05-05T10:28:09.823Z,100756.03
2023-05-05T10:30:43.114Z,100745.75
2023-05-05T10:33:30.757Z,100745.09
2023-05-05T10:36:02.391Z,100734.84
2023-05-05T10:38:31.188Z,100737.91
2023-05-05T10:40:59.447Z,100738.16
2023-05-05T10:43:29.812Z,100726.59
2023-05-05T10:45:57.459Z,100727.84
2023-05-05T10:48:47.902Z,100722.06
2023-05-05T10:51:41.187Z,100712.63
2023-05-05T10:54:19.325Z,100719.72
2023-05-05T10:56:47.268Z,100710.28
2023-05-05T10:59:32.853Z,100704.22
2023-05-05T11:01:59.651Z,100700.88
2023-05-05T11:04:29.638Z,100699.34
2023-05-05T11:07:10.292Z,100699.84
2023-05-05T11:09:55.364Z,100700.81
2023-05-05T11:12:22.258Z,100692.09
2023-05-05T11:15:24.305Z,100690.91
2023-05-05T11:17:54.805Z,100690.34
2023-05-05T11:20:39.409Z,100673.31
2023-05-05T11:23:06.304Z,100678.13
2023-05-05T11:25:41.249Z,100673.75
2023-05-05T11:28:18.993Z,100682.91
2023-05-05T11:30:55.285Z,100675.66
2023-05-05T11:33:33.176Z,100678.91
2023-05-05T11:36:00.226Z,100676.94
2023-05-05T11:38:41.500Z,100658.66
2023-05-05T11:41:27.287Z,100667.00
2023-05-05T11:44:30.502Z,100650.00
2023-05-05T11:46:57.530Z,100648.72
2023-05-05T11:49:30.123Z,100660.22
2023-05-05T11:51:58.366Z,100652.09
2023-05-05T11:54:26.241Z,100643.09
2023-05-05T11:56:55.275Z,100644.03
2023-05-05T11:59:22.551Z,100639.59
2023-05-05T12:01:49.676Z,100633.78
2023-05-05T12:04:17.220Z,100634.66
2023-05-05T12:06:46.127Z,100633.25
2023-05-05T12:09:16.513Z,100633.75
2023-05-05T12:11:50.651Z,100630.47
2023-05-05T12:14:17.506Z,100629.06
2023-05-05T12:16:58.675Z,100630.09
2023-05-05T12:19:32.940Z,100625.16
2023-05-05T12:22:01.367Z,100618.00
2023-05-05T12:24:28.440Z,100621.69
2023-05-05T12:26:55.590Z,100616.25
2023-05-05T12:29:26.877Z,100614.66
2023-05-05T12:31:54.196Z,100611.84
2023-05-05T12:34:21.668Z,100618.03
2023-05-05T12:36:49.158Z,100614.56
2023-05-05T12:39:15.925Z,100614.13
2023-05-05T12:41:43.379Z,100615.06
2023-05-05T12:44:10.618Z,100605.84
2023-05-05T12:46:48.818Z,100606.38
2023-05-05T12:49:17.586Z,100607.41
2023-05-05T12:51:55.360Z,100605.00
2023-05-05T12:54:24.407Z,100592.41
2023-05-05T12:56:51.528Z,100584.44
2023-05-05T12:59:21.028Z,100587.09
2023-05-05T13:01:51.101Z,100581.56
2023-05-05T13:04:19.316Z,100582.22
2023-05-05T13:06:48.807Z,100576.63
2023-05-05T13:09:33.916Z,100576.44
2023-05-05T13:12:03.110Z,100567.94
2023-05-05T13:14:33.148Z,100574.84
2023-05-05T13:17:00.549Z,100568.47
2023-05-05T13:19:27.770Z,100559.25
2023-05-05T13:21:56.610Z,100561.81
2023-05-05T13:24:34.918Z,100554.66
2023-05-05T13:27:09.823Z,100557.47
2023-05-05T13:29:36.793Z,100547.84
2023-05-05T13:32:04.320Z,100559.13
2023-05-05T13:34:31.166Z,100556.34
2023-05-05T13:36:58.244Z,100545.13
2023-05-05T13:39:25.241Z,100544.63
2023-05-05T13:41:52.409Z,100546.28
2023-05-05T13:44:19.191Z,100544.34
2023-05-05T13:46:46.475Z,100543.28
2023-05-05T13:49:13.422Z,100535.94
2023-05-05T13:51:40.546Z,100536.25
2023-05-05T13:54:07.807Z,100528.47
2023-05-05T13:56:34.954Z,100527.22
2023-05-05T13:59:02.497Z,100530.00
2023-05-05T14:01:30.314Z,100527.56
2023-05-05T14:03:58.098Z,100513.03
2023-05-05T14:06:26.089Z,100514.84
2023-05-05T14:08:53.127Z,100521.84
2023-05-05T14:11:21.020Z,100519.09
2023-05-05T14:13:48.294Z,100521.31
2023-05-05T14:16:15.638Z,100518.97
2023-05-05T14:18:42.593Z,100516.97
2023-05-05T14:21:09.799Z,100520.72
2023-05-05T14:23:36.642Z,100520.97
2023-05-05T14:26:03.838Z,100518.78
2023-05-05T14:28:30.784Z,100518.31
2023-05-05T14:30:58.026Z,100508.47
2023-05-05T14:33:24.857Z,100505.75
2023-05-05T14:35:52.050Z,100513.13
2023-05-05T14:38:18.953Z,100504.06
2023-05-05T14:40:46.082Z,100500.00
2023-05-05T14:43:12.877Z,100500.31
2023-05-05T14:45:40.034Z,100499.91
2023-05-05T14:48:07.147Z,100495.88
2023-05-05T14:50:34.221Z,100495.34
2023-05-05T14:53:01.104Z,100495.25
2023-05-05T14:55:28.291Z,100494.34
2023-05-05T14:57:55.453Z,100493.16
2023-05-05T15:00:22.640Z,100485.94
2023-05-05T15:02:49.485Z,100487.88
2023-05-05T15:05:16.705Z,100490.63
2023-05-05T15:07:43.613Z,100475.97
2023-05-05T15:10:11.106Z,100483.03
2023-05-05T15:12:37.950Z,100482.06
2023-05-05T15:15:05.530Z,100484.03
2023-05-05T15:17:32.774Z,100482.16
2023-05-05T15:19:59.922Z,100484.53
2023-05-05T15:22:26.778Z,100482.22
2023-05-05T15:24:53.835Z,100485.72
2023-05-05T15:27:20.613Z,100484.09
2023-05-05T15:29:48.524Z,100482.75
2023-05-05T15:32:15.363Z,100479.72
2023-05-05T15:34:44.826Z,100470.53
2023-05-05T15:37:11.772Z,100473.31
2023-05-05T15:39:38.823Z,100481.03
2023-05-05T15:42:05.694Z,100471.50
2023-05-05T15:44:32.740Z,100468.53
2023-05-05T15:47:02.268Z,100473.94
2023-05-05T15:49:29.322Z,100475.34
2023-05-05T15:51:56.332Z,100480.81
2023-05-05T15:54:23.586Z,100471.84
2023-05-05T15:56:50.388Z,100473.72
2023-05-05T15:59:18.626Z,100476.16
2023-05-05T16:01:46.759Z,100470.41
2023-05-05T16:04:14.150Z,100474.75
2023-05-05T16:06:41.081Z,100478.16
2023-05-05T16:09:08.217Z,100476.84
2023-05-05T16:11:35.450Z,100474.78
2023-05-05T16:14:05.703Z,100472.03
2023-05-05T16:16:32.794Z,100478.50
2023-05-05T16:18:59.842Z,100472.78
2023-05-05T16:21:27.531Z,100466.25
2023-05-05T16:23:56.025Z,100466.13
2023-05-05T16:26:22.849Z,100475.56
2023-05-05T16:28:49.932Z,100467.72
2023-05-05T16:31:17.257Z,100468.69
2023-05-05T16:33:44.600Z,100463.53
2023-05-05T16:36:12.521Z,100462.53
2023-05-05T16:38:43.760Z,100460.16
2023-05-05T16:41:11.164Z,100459.16
2023-05-05T16:43:38.281Z,100462.00
2023-05-05T16:46:06.109Z,100455.78
2023-05-05T16:48:33.233Z,100457.13
2023-05-05T16:51:00.122Z,100461.41
2023-05-05T16:53:27.265Z,100458.16
2023-05-05T16:55:54.200Z,100459.94
2023-05-05T16:58:22.810Z,100455.81
2023-05-05T17:00:50.398Z,100458.09
2023-05-05T17:03:20.604Z,100458.72
2023-05-05T17:05:50.278Z,100461.22
2023-05-05T17:08:17.620Z,100458.75
2023-05-05T17:10:45.527Z,100456.44
2023-05-05T17:13:13.878Z,100458.09
2023-05-05T17:15:41.880Z,100461.31
2023-05-05T17:18:09.204Z,100461.56
2023-05-05T17:20:36.423Z,100458.69
2023-05-05T17:23:03.761Z,100456.28
2023-05-05T17:25:31.286Z,100468.69
2023-05-05T17:27:58.390Z,100468.81
2023-05-05T17:30:25.337Z,100469.06
2023-05-05T17:32:52.662Z,100468.00
2023-05-05T17:35:21.289Z,100473.22
2023-05-05T17:37:48.417Z,100466.88
2023-05-05T17:40:15.315Z,100471.41
2023-05-05T17:42:42.360Z,100473.06
2023-05-05T17:45:10.030Z,100472.44
2023-05-05T17:47:37.462Z,100476.72
2023-05-05T17:50:04.667Z,100468.78
2023-05-05T17:52:31.738Z,100475.44
2023-05-05T17:54:58.615Z,100463.06
2023-05-05T17:57:25.775Z,100472.94
2023-05-05T17:59:53.682Z,100477.56
2023-05-05T18:02:21.430Z,100476.63
2023-05-05T18:04:48.303Z,100475.88
2023-05-05T18:07:15.426Z,100476.47
2023-05-05T18:09:42.510Z,100474.44
2023-05-05T18:12:09.643Z,100478.72
2023-05-05T18:14:36.797Z,100480.81
2023-05-05T18:17:04.783Z,100486.22
2023-05-05T18:19:31.821Z,100484.16
2023-05-05T18:21:59.145Z,100485.22
2023-05-05T18:24:26.156Z,100488.00
2023-05-05T18:26:53.395Z,100494.44
2023-05-05T18:29:21.873Z,100496.56
2023-05-05T18:31:54.818Z,100501.41
2023-05-05T18:34:21.899Z,100501.03
2023-05-05T18:36:50.742Z,100491.16
2023-05-05T18:39:17.929Z,100497.63
2023-05-05T18:41:45.186Z,100496.50
2023-05-05T18:44:12.040Z,100498.66
2023-05-05T18:46:39.213Z,100503.75
2023-05-05T18:49:06.288Z,100506.41
2023-05-05T18:51:33.381Z,100513.91
2023-05-05T18:54:01.040Z,100516.31
2023-05-05T18:56:31.242Z,100519.25
2023-05-05T18:58:58.125Z,100513.78
2023-05-05T19:01:25.228Z,100511.91
2023-05-05T19:03:52.102Z,100515.41
2023-05-05T19:06:19.268Z,100519.22
2023-05-05T19:08:46.592Z,100529.63
2023-05-05T19:11:15.187Z,100523.25
2023-05-05T19:13:42.556Z,100524.22
2023-05-05T19:16:12.073Z,100521.91
2023-05-05T19:18:39.649Z,100515.69
2023-05-05T19:21:06.970Z,100523.84
2023-05-05T19:23:35.992Z,100520.66
2023-05-05T19:26:06.006Z,100522.56
2023-05-05T19:28:33.001Z,100519.59
2023-05-05T19:31:00.195Z,100519.41
2023-05-05T19:33:27.146Z,100522.59
2023-05-05T19:35:54.233Z,100518.19
2023-05-05T19:38:21.055Z,100520.72
2023-05-05T19:40:48.182Z,100517.16
2023-05-05T19:43:15.131Z,100521.50
2023-05-05T19:45:42.262Z,100524.25
2023-05-05T19:48:09.123Z,100528.66
2023-05-05T19:50:36.277Z,100524.03
2023-05-05T19:53:03.815Z,100523.69
2023-05-05T19:55:32.128Z,100521.75
2023-05-05T19:57:58.930Z,100523.69
2023-05-05T20:00:26.039Z,100524.06
2023-05-05T20:02:52.928Z,100520.63
2023-05-05T20:05:20.065Z,100525.25
2023-05-05T20:07:47.027Z,100530.00
2023-05-05T20:10:14.309Z,100517.53
2023-05-05T20:12:47.630Z,100525.31
2023-05-05T20:15:19.303Z,100527.22
2023-05-05T20:17:49.548Z,100524.81
2023-05-05T20:20:18.828Z,100523.75
2023-05-05T20:22:46.886Z,100525.31
2023-05-05T20:25:16.181Z,100517.81
2023-05-05T20:27:43.377Z,100519.00
2023-05-05T20:30:11.980Z,100523.75
2023-05-05T20:32:39.051Z,100529.66
2023-05-05T20:35:07.324Z,100520.47
2023-05-05T20:37:34.535Z,100519.03
2023-05-05T20:40:01.802Z,100521.47
2023-05-05T20:42:29.654Z,100517.66
2023-05-05T20:44:57.122Z,100518.09
2023-05-05T20:47:24.408Z,100521.22
2023-05-05T20:49:52.508Z,100524.75
2023-05-05T20:52:19.633Z,100522.22
2023-05-05T20:54:46.792Z,100535.63
2023-05-05T20:57:13.684Z,100531.63
2023-05-05T20:59:40.869Z,100525.44
2023-05-05T21:02:07.990Z,100522.03
2023-05-05T21:04:35.336Z,100518.28
2023-05-05T21:07:02.925Z,100519.97
2023-05-05T21:09:30.056Z,100520.34
2023-05-05T21:11:57.086Z,100521.66
2023-05-05T21:14:24.357Z,100516.94
2023-05-05T21:16:51.288Z,100517.28
2023-05-05T21:19:18.444Z,100518.81
2023-05-05T21:21:45.612Z,100510.34
2023-05-05T21:24:15.476Z,100509.72
2023-05-05T21:26:44.312Z,100514.59
2023-05-05T21:29:12.093Z,100508.50
2023-05-05T21:31:39.061Z,100512.13
2023-05-05T21:34:06.614Z,100510.28
2023-05-05T21:36:33.998Z,100504.84
2023-05-05T21:39:01.301Z,100506.53
2023-05-05T21:41:28.874Z,100504.00
2023-05-05T21:43:59.585Z,100498.50
2023-05-05T21:46:26.817Z,100498.50
2023-05-05T21:48:54.235Z,100503.34
2023-05-05T21:51:23.305Z,100490.50
2023-05-05T21:53:50.559Z,100487.50
2023-05-05T21:56:17.453Z,100493.16
2023-05-05T21:58:44.576Z,100490.28
2023-05-05T22:01:12.163Z,100482.78
2023-05-05T22:03:39.357Z,100482.91
2023-05-05T22:06:06.458Z,100477.84
2023-05-05T22:08:33.590Z,100484.00
2023-05-05T22:11:00.607Z,100480.94
2023-05-05T22:13:27.682Z,100483.69
2023-05-05T22:15:54.465Z,100488.78
2023-05-05T22:18:21.521Z,100490.72
2023-05-05T22:20:48.289Z,100485.72
2023-05-05T22:23:16.472Z,100494.34
2023-05-05T22:25:44.417Z,100486.38
2023-05-05T22:28:11.710Z,100491.06
2023-05-05T22:30:38.567Z,100487.47
2023-05-05T22:33:05.813Z,100493.69
2023-05-05T22:35:37.410Z,100487.13
2023-05-05T22:38:05.084Z,100494.66
2023-05-05T22:40:32.192Z,100509.22
2023-05-05T22:42:59.585Z,100510.56
2023-05-05T22:45:27.231Z,100507.53
2023-05-05T22:47:54.530Z,100512.59
2023-05-05T22:50:21.418Z,100506.03
2023-05-05T22:52:48.499Z,100510.78
2023-05-05T22:55:15.452Z,100506.34
2023-05-05T22:57:42.572Z,100502.72
2023-05-05T23:00:10.729Z,100505.19
2023-05-05T23:02:38.108Z,100505.38
2023-05-05T23:05:06.040Z,100509.47
2023-05-05T23:07:33.168Z,100513.31
2023-05-05T23:09:59.940Z,100509.81
2023-05-05T23:12:27.055Z,100500.06
2023-05-05T23:14:53.834Z,100504.59
2023-05-05T23:17:21.061Z,100500.56
2023-05-05T23:19:50.106Z,100496.97
2023-05-05T23:22:17.210Z,100504.47
2023-05-05T23:24:44.095Z,100501.41
2023-05-05T23:27:11.173Z,100499.88
2023-05-05T23:29:37.962Z,100491.44
2023-05-05T23:32:08.397Z,100505.19
2023-05-05T23:34:35.216Z,100498.69
2023-05-05T23:37:03.451Z,100505.66
2023-05-05T23:39:34.221Z,100498.16
2023-05-05T23:42:02.322Z,100501.22
2023-05-05T23:44:29.179Z,100499.84
2023-05-05T23:46:56.278Z,100492.88
2023-05-05T23:49:24.973Z,100494.63
2023-05-05T23:51:52.686Z,100495.91
2023-05-05T23:54:19.496Z,100498.84
2023-05-05T23:56:47.822Z,100488.56
2023-05-05T23:59:14.658Z,100499.13
